createdAt,value
2023-04-27T00:00:49.894Z,5.50
2023-04-27T00:03:16.934Z,4.87
2023-04-27T00:05:44.355Z,4.90
2023-04-27T00:08:11.249Z,4.43
2023-04-27T00:10:37.889Z,4.30
2023-04-27T00:13:04.628Z,4.33
2023-04-27T00:15:31.422Z,4.20
2023-04-27T00:17:58.248Z,5.20
2023-04-27T00:20:25.247Z,4.53
2023-04-27T00:22:52.019Z,4.80
2023-04-27T00:25:18.819Z,4.17
2023-04-27T00:27:45.616Z,4.60
2023-04-27T00:30:12.839Z,4.60
2023-04-27T00:32:39.625Z,4.20
2023-04-27T00:35:07.093Z,4.97
2023-04-27T00:37:33.832Z,4.70
2023-04-27T00:40:00.592Z,4.17
2023-04-27T00:42:27.252Z,5.00
2023-04-27T00:44:53.887Z,4.43
2023-04-27T00:47:20.607Z,4.20
2023-04-27T00:49:47.350Z,4.77
2023-04-27T00:52:14.474Z,4.37
2023-04-27T00:54:41.229Z,4.30
2023-04-27T00:57:09.030Z,4.57
2023-04-27T00:59:35.727Z,4.60
2023-04-27T01:02:02.806Z,4.50
2023-04-27T01:04:32.295Z,4.50
2023-04-27T01:06:59.269Z,5.10
2023-04-27T01:09:26.244Z,5.43
2023-04-27T01:11:52.939Z,4.33
2023-04-27T01:14:19.692Z,5.03
2023-04-27T01:16:46.526Z,5.23
2023-04-27T01:19:13.636Z,4.93
2023-04-27T01:21:40.875Z,5.13
2023-04-27T01:24:08.601Z,5.20
2023-04-27T01:26:35.664Z,5.10
2023-04-27T01:29:02.343Z,5.17
2023-04-27T01:31:29.102Z,4.80
2023-04-27T01:33:55.865Z,4.47
2023-04-27T01:36:22.586Z,5.13
2023-04-27T01:38:49.479Z,4.73
2023-04-27T01:41:16.159Z,5.40
2023-04-27T01:43:43.801Z,5.47
2023-04-27T01:46:12.600Z,5.43
2023-04-27T01:48:40.591Z,5.00
2023-04-27T01:51:07.764Z,4.60
2023-04-27T01:53:34.623Z,4.40
2023-04-27T01:56:01.391Z,4.57
2023-04-27T01:58:28.624Z,5.13
2023-04-27T02:00:55.453Z,4.97
2023-04-27T02:03:22.462Z,4.80
2023-04-27T02:05:49.249Z,4.90
2023-04-27T02:08:15.928Z,4.93
2023-04-27T02:10:42.875Z,4.77
2023-04-27T02:13:09.988Z,4.80
2023-04-27T02:15:37.151Z,4.70
2023-04-27T02:18:04.074Z,5.60
2023-04-27T02:20:31.766Z,5.50
2023-04-27T02:22:58.548Z,5.97
2023-04-27T02:25:25.400Z,5.57
2023-04-27T02:27:52.100Z,5.10
2023-04-27T02:30:19.265Z,5.07
2023-04-27T02:32:46.534Z,6.53
2023-04-27T02:35:13.340Z,5.97
2023-04-27T02:37:40.109Z,5.83
2023-04-27T02:40:08.278Z,6.17
2023-04-27T02:42:35.013Z,5.33
2023-04-27T02:45:01.704Z,6.13
2023-04-27T02:47:28.442Z,5.80
2023-04-27T02:49:55.100Z,5.17
2023-04-27T02:52:21.908Z,6.03
2023-04-27T02:54:48.623Z,6.20
2023-04-27T02:57:15.356Z,6.40
2023-04-27T02:59:42.079Z,6.10
2023-04-27T03:02:08.879Z,5.83
2023-04-27T03:04:36.729Z,5.83
2023-04-27T03:07:04.101Z,5.77
2023-04-27T03:09:30.781Z,5.93
2023-04-27T03:11:57.462Z,6.03
2023-04-27T03:14:24.180Z,5.87
2023-04-27T03:16:51.129Z,5.57
2023-04-27T03:19:18.057Z,6.40
2023-04-27T03:21:46.796Z,6.00
2023-04-27T03:24:13.423Z,6.27
2023-04-27T03:26:40.173Z,5.43
2023-04-27T03:29:06.812Z,6.60
2023-04-27T03:31:33.486Z,6.20
2023-04-27T03:34:00.266Z,6.37
2023-04-27T03:36:27.197Z,6.40
2023-04-27T03:38:53.824Z,6.43
2023-04-27T03:41:20.588Z,6.20
2023-04-27T03:43:47.712Z,7.00
2023-04-27T03:46:14.433Z,6.03
2023-04-27T03:48:41.728Z,6.60
2023-04-27T03:51:09.039Z,6.30
2023-04-27T03:53:35.800Z,6.80
2023-04-27T03:56:03.206Z,6.67
2023-04-27T03:58:29.920Z,6.53
2023-04-27T04:00:57.566Z,6.43
2023-04-27T04:03:24.626Z,6.53
2023-04-27T04:05:51.564Z,6.60
2023-04-27T04:08:18.239Z,6.77
2023-04-27T04:10:45.001Z,6.20
2023-04-27T04:13:12.015Z,6.50
2023-04-27T04:15:46.426Z,6.97
2023-04-27T04:18:33.780Z,7.33
2023-04-27T04:21:20.743Z,6.77
2023-04-27T04:23:48.812Z,6.63
2023-04-27T04:26:18.982Z,7.23
2023-04-27T04:29:04.261Z,6.60
2023-04-27T04:31:43.965Z,6.10
2023-04-27T04:34:30.733Z,7.30
2023-04-27T04:36:59.202Z,7.07
2023-04-27T04:39:34.289Z,7.17
2023-04-27T04:42:04.118Z,7.43
2023-04-27T04:44:31.555Z,8.10
2023-04-27T04:46:58.714Z,8.30
2023-04-27T04:49:25.729Z,8.40
2023-04-27T04:51:52.335Z,8.00
2023-04-27T04:54:19.081Z,8.03
2023-04-27T04:56:45.827Z,7.83
2023-04-27T04:59:12.810Z,8.93
2023-04-27T05:01:39.806Z,8.83
2023-04-27T05:04:07.012Z,8.90
2023-04-27T05:06:34.028Z,8.37
2023-04-27T05:09:00.693Z,8.63
2023-04-27T05:11:27.460Z,7.50
2023-04-27T05:13:54.381Z,7.63
2023-04-27T05:16:21.156Z,7.63
2023-04-27T05:18:47.935Z,8.47
2023-04-27T05:21:20.789Z,8.93
2023-04-27T05:23:47.904Z,7.77
2023-04-27T05:26:16.494Z,8.37
2023-04-27T05:28:43.363Z,7.87
2023-04-27T05:31:10.231Z,8.17
2023-04-27T05:33:37.058Z,7.70
2023-04-27T05:36:03.928Z,7.40
2023-04-27T05:38:30.624Z,8.00
2023-04-27T05:40:58.727Z,7.87
2023-04-27T05:43:26.344Z,7.33
2023-04-27T05:45:53.877Z,7.87
2023-04-27T05:48:21.206Z,7.33
2023-04-27T05:50:47.891Z,7.50
2023-04-27T05:53:14.554Z,7.50
2023-04-27T05:55:42.969Z,7.10
2023-04-27T05:58:09.648Z,7.27
2023-04-27T06:00:36.930Z,7.80
2023-04-27T06:03:03.991Z,6.77
2023-04-27T06:05:30.974Z,6.23
2023-04-27T06:07:57.814Z,6.60
2023-04-27T06:10:24.595Z,6.10
2023-04-27T06:12:51.534Z,6.07
2023-04-27T06:15:18.367Z,5.87
2023-04-27T06:17:46.032Z,5.23
2023-04-27T06:20:13.793Z,5.67
2023-04-27T06:22:41.858Z,5.37
2023-04-27T06:25:10.629Z,5.20
2023-04-27T06:27:38.810Z,5.00
2023-04-27T06:30:07.296Z,4.30
2023-04-27T06:32:34.635Z,5.10
2023-04-27T06:35:01.890Z,4.43
2023-04-27T06:37:29.917Z,4.60
2023-04-27T06:39:56.704Z,3.93
2023-04-27T06:42:23.478Z,4.73
2023-04-27T06:44:54.552Z,4.10
2023-04-27T06:47:22.393Z,4.33
2023-04-27T06:49:49.885Z,4.77
2023-04-27T06:52:17.270Z,4.57
2023-04-27T06:54:45.619Z,4.50
2023-04-27T06:57:12.412Z,4.50
2023-04-27T06:59:39.129Z,4.63
2023-04-27T07:02:07.264Z,4.37
2023-04-27T07:04:34.303Z,4.90
2023-04-27T07:07:01.103Z,4.67
2023-04-27T07:09:29.001Z,3.73
2023-04-27T07:11:57.382Z,3.73
2023-04-27T07:14:24.985Z,4.57
2023-04-27T07:16:51.954Z,4.30
2023-04-27T07:19:18.661Z,3.93
2023-04-27T07:21:45.332Z,3.23
2023-04-27T07:24:12.110Z,3.50
2023-04-27T07:26:39.615Z,3.27
2023-04-27T07:29:18.715Z,3.73
2023-04-27T07:31:46.720Z,3.70
2023-04-27T07:34:13.550Z,3.33
2023-04-27T07:36:42.372Z,3.40
2023-04-27T07:39:10.481Z,3.70
2023-04-27T07:41:37.763Z,3.20
2023-04-27T07:44:04.440Z,2.90
2023-04-27T07:46:32.952Z,3.23
2023-04-27T07:49:00.131Z,2.40
2023-04-27T07:51:28.842Z,3.13
2023-04-27T07:53:55.865Z,2.57
2023-04-27T07:56:22.527Z,3.10
2023-04-27T07:58:49.239Z,2.37
2023-04-27T08:01:17.589Z,2.70
2023-04-27T08:03:46.046Z,2.83
2023-04-27T08:06:13.198Z,3.00
2023-04-27T08:08:40.200Z,2.77
2023-04-27T08:11:12.520Z,2.00
2023-04-27T08:13:39.350Z,2.30
2023-04-27T08:16:06.306Z,2.27
2023-04-27T08:18:33.198Z,2.83
2023-04-27T08:21:00.371Z,2.30
2023-04-27T08:23:29.096Z,2.27
2023-04-27T08:25:55.783Z,2.17
2023-04-27T08:28:27.325Z,2.23
2023-04-27T08:30:54.305Z,2.40
2023-04-27T08:33:21.306Z,2.40
2023-04-27T08:35:48.250Z,3.00
2023-04-27T08:38:15.255Z,2.00
2023-04-27T08:40:44.275Z,2.30
2023-04-27T08:43:11.383Z,1.80
2023-04-27T08:45:39.240Z,2.00
2023-04-27T08:48:06.661Z,1.60
2023-04-27T08:50:33.458Z,1.53
2023-04-27T08:53:00.777Z,1.70
2023-04-27T08:55:28.642Z,1.70
2023-04-27T08:57:58.969Z,1.50
2023-04-27T09:00:26.754Z,1.70
2023-04-27T09:02:54.047Z,1.30
2023-04-27T09:05:23.156Z,1.80
2023-04-27T09:08:19.557Z,2.00
2023-04-27T09:10:48.049Z,1.73
2023-04-27T09:13:15.341Z,1.73
2023-04-27T09:15:50.867Z,1.73
2023-04-27T09:18:19.460Z,2.23
2023-04-27T09:20:51.682Z,1.70
2023-04-27T09:23:28.049Z,2.00
2023-04-27T09:25:59.560Z,1.97
2023-04-27T09:28:29.391Z,1.90
2023-04-27T09:30:58.048Z,2.00
2023-04-27T09:33:25.429Z,2.10
2023-04-27T09:35:52.512Z,2.27
2023-04-27T09:38:21.250Z,2.20
2023-04-27T09:40:49.376Z,1.67
2023-04-27T09:43:16.243Z,2.13
2023-04-27T09:45:43.829Z,2.17
2023-04-27T09:48:13.779Z,2.07
2023-04-27T09:50:42.411Z,1.83
2023-04-27T09:53:12.177Z,2.03
2023-04-27T09:55:47.275Z,1.70
2023-04-27T09:58:34.900Z,2.00
2023-04-27T10:01:04.876Z,1.90
2023-04-27T10:03:55.171Z,1.80
2023-04-27T10:06:42.846Z,2.20
2023-04-27T10:09:10.507Z,1.70
2023-04-27T10:11:44.409Z,2.00
2023-04-27T10:14:18.203Z,2.00
2023-04-27T10:16:52.465Z,2.17
2023-04-27T10:19:20.751Z,2.00
2023-04-27T10:22:05.396Z,2.53
2023-04-27T10:24:36.224Z,2.40
2023-04-27T10:27:08.190Z,2.17
2023-04-27T10:29:36.907Z,2.23
2023-04-27T10:32:11.600Z,2.30
2023-04-27T10:34:39.179Z,2.07
2023-04-27T10:37:11.060Z,2.30
2023-04-27T10:39:47.830Z,2.47
2023-04-27T10:42:27.477Z,2.30
2023-04-27T10:44:57.741Z,2.60
2023-04-27T10:47:24.946Z,2.70
2023-04-27T10:49:54.876Z,2.27
2023-04-27T10:52:22.005Z,2.40
2023-04-27T10:54:48.745Z,2.93
2023-04-27T10:57:16.481Z,2.20
2023-04-27T10:59:55.686Z,2.40
2023-04-27T11:02:27.730Z,2.33
2023-04-27T11:04:55.888Z,2.80
2023-04-27T11:07:27.792Z,2.63
2023-04-27T11:09:55.169Z,2.30
2023-04-27T11:12:22.026Z,2.27
2023-04-27T11:14:48.776Z,2.40
2023-04-27T11:17:15.651Z,2.17
2023-04-27T11:19:47.475Z,2.27
2023-04-27T11:22:17.006Z,2.00
2023-04-27T11:24:49.051Z,2.23
2023-04-27T11:27:16.322Z,1.90
2023-04-27T11:29:43.043Z,2.30
2023-04-27T11:32:22.893Z,2.43
2023-04-27T11:34:55.511Z,2.40
2023-04-27T11:37:26.654Z,2.30
2023-04-27T11:39:54.797Z,2.17
2023-04-27T11:42:26.536Z,2.33
2023-04-27T11:44:55.720Z,2.40
2023-04-27T11:47:25.372Z,2.43
2023-04-27T11:49:54.657Z,2.33
2023-04-27T11:52:22.692Z,2.23
2023-04-27T11:54:56.791Z,2.20
2023-04-27T11:57:31.916Z,2.03
2023-04-27T12:00:01.536Z,1.93
2023-04-27T12:02:30.438Z,2.30
2023-04-27T12:04:59.877Z,2.10
2023-04-27T12:07:27.052Z,1.73
2023-04-27T12:09:53.762Z,2.20
2023-04-27T12:12:22.573Z,1.90
2023-04-27T12:14:50.420Z,1.93
2023-04-27T12:17:17.435Z,2.07
2023-04-27T12:19:44.253Z,2.20
2023-04-27T12:22:11.212Z,2.13
2023-04-27T12:24:37.884Z,2.13
2023-04-27T12:27:06.281Z,2.30
2023-04-27T12:29:33.021Z,2.20
2023-04-27T12:32:02.393Z,2.00
2023-04-27T12:34:29.425Z,2.10
2023-04-27T12:36:56.647Z,1.73
2023-04-27T12:39:27.277Z,1.70
2023-04-27T12:41:54.185Z,2.43
2023-04-27T12:44:21.549Z,2.27
2023-04-27T12:46:48.684Z,2.17
2023-04-27T12:49:15.869Z,1.93
2023-04-27T12:51:43.377Z,2.63
2023-04-27T12:54:11.225Z,2.00
2023-04-27T12:56:38.410Z,2.53
2023-04-27T12:59:06.291Z,2.30
2023-04-27T13:01:33.432Z,2.27
2023-04-27T13:04:02.778Z,2.43
2023-04-27T13:06:31.288Z,2.20
2023-04-27T13:08:58.886Z,2.10
2023-04-27T13:11:25.924Z,2.03
2023-04-27T13:13:52.745Z,2.27
2023-04-27T13:16:21.727Z,2.20
2023-04-27T13:18:50.586Z,1.90
2023-04-27T13:21:17.997Z,1.93
2023-04-27T13:23:44.741Z,2.17
2023-04-27T13:26:11.940Z,1.70
2023-04-27T13:28:38.794Z,2.10
2023-04-27T13:31:06.302Z,1.90
2023-04-27T13:33:39.659Z,1.87
2023-04-27T13:36:06.693Z,2.20
2023-04-27T13:38:33.377Z,2.20
2023-04-27T13:41:04.152Z,1.87
2023-04-27T13:43:31.588Z,2.13
2023-04-27T13:46:01.185Z,1.87
2023-04-27T13:48:28.275Z,1.87
2023-04-27T13:50:58.327Z,1.93
2023-04-27T13:53:26.010Z,2.30
2023-04-27T13:55:57.310Z,2.33
2023-04-27T13:58:26.288Z,2.20
2023-04-27T14:00:54.027Z,2.10
2023-04-27T14:03:21.731Z,2.03
2023-04-27T14:05:50.450Z,2.13
2023-04-27T14:08:17.711Z,1.97
2023-04-27T14:10:48.487Z,2.30
2023-04-27T14:13:15.274Z,2.20
2023-04-27T14:15:42.254Z,2.00
2023-04-27T14:18:09.767Z,2.07
2023-04-27T14:20:38.148Z,2.43
2023-04-27T14:23:06.242Z,2.10
2023-04-27T14:25:34.482Z,2.17
2023-04-27T14:28:03.288Z,2.20
2023-04-27T14:30:31.299Z,1.93
2023-04-27T14:32:58.286Z,2.30
2023-04-27T14:35:25.212Z,2.03
2023-04-27T14:37:52.544Z,1.93
2023-04-27T14:40:19.881Z,1.90
2023-04-27T14:42:47.162Z,2.30
2023-04-27T14:45:15.905Z,2.10
2023-04-27T14:47:42.817Z,2.10
2023-04-27T14:50:11.606Z,2.10
2023-04-27T14:52:38.807Z,2.00
2023-04-27T14:55:06.624Z,2.10
2023-04-27T14:57:33.301Z,2.23
2023-04-27T15:00:00.913Z,2.23
2023-04-27T15:02:27.790Z,1.70
2023-04-27T15:04:55.684Z,1.90
2023-04-27T15:07:22.673Z,2.40
2023-04-27T15:09:49.466Z,2.10
2023-04-27T15:12:16.683Z,2.07
2023-04-27T15:14:43.360Z,2.10
2023-04-27T15:17:10.087Z,2.07
2023-04-27T15:19:36.887Z,2.00
2023-04-27T15:22:03.560Z,2.07
2023-04-27T15:24:30.258Z,2.20
2023-04-27T15:26:57.012Z,2.20
2023-04-27T15:29:23.674Z,2.23
2023-04-27T15:31:50.883Z,2.00
2023-04-27T15:34:17.759Z,1.90
2023-04-27T15:36:44.453Z,2.40
2023-04-27T15:39:11.650Z,2.03
2023-04-27T15:41:38.671Z,1.93
2023-04-27T15:44:06.521Z,1.93
2023-04-27T15:46:33.361Z,1.87
2023-04-27T15:49:00.167Z,1.70
2023-04-27T15:51:27.059Z,2.23
2023-04-27T15:53:53.752Z,1.77
2023-04-27T15:56:20.654Z,2.00
2023-04-27T15:58:47.371Z,2.07
2023-04-27T16:01:14.842Z,1.70
2023-04-27T16:03:42.023Z,2.10
2023-04-27T16:06:09.032Z,2.37
2023-04-27T16:08:38.634Z,2.20
2023-04-27T16:11:05.525Z,2.37
2023-04-27T16:13:32.837Z,2.30
2023-04-27T16:16:00.213Z,2.20
2023-04-27T16:18:28.200Z,1.90
2023-04-27T16:20:54.940Z,1.87
2023-04-27T16:23:21.835Z,2.20
2023-04-27T16:25:48.575Z,2.00
2023-04-27T16:28:16.596Z,1.90
2023-04-27T16:30:43.269Z,1.90
2023-04-27T16:33:10.115Z,2.00
2023-04-27T16:35:36.880Z,2.00
2023-04-27T16:38:05.930Z,2.33
2023-04-27T16:40:33.928Z,2.13
2023-04-27T16:43:00.833Z,2.37
2023-04-27T16:45:28.629Z,2.30
2023-04-27T16:47:55.571Z,2.30
2023-04-27T16:50:22.367Z,2.30
2023-04-27T16:52:49.611Z,2.10
2023-04-27T16:55:16.417Z,2.43
2023-04-27T16:57:43.050Z,2.40
2023-04-27T17:00:10.374Z,2.47
2023-04-27T17:02:37.474Z,2.27
2023-04-27T17:05:04.546Z,2.50
2023-04-27T17:07:34.514Z,2.30
2023-04-27T17:10:07.046Z,2.77
2023-04-27T17:12:33.974Z,2.43
2023-04-27T17:15:00.867Z,2.63
2023-04-27T17:17:27.836Z,2.57
2023-04-27T17:19:54.467Z,2.70
2023-04-27T17:22:21.227Z,2.73
2023-04-27T17:24:47.993Z,2.50
2023-04-27T17:27:16.119Z,2.23
2023-04-27T17:29:42.870Z,2.30
2023-04-27T17:32:09.642Z,2.53
2023-04-27T17:34:36.338Z,2.53
2023-04-27T17:37:03.120Z,2.20
2023-04-27T17:39:29.948Z,2.80
2023-04-27T17:41:57.112Z,1.93
2023-04-27T17:44:23.818Z,2.40
2023-04-27T17:46:51.814Z,2.50
2023-04-27T17:49:19.234Z,2.63
2023-04-27T17:51:47.050Z,2.50
2023-04-27T17:54:13.848Z,2.80
2023-04-27T17:56:40.667Z,2.20
2023-04-27T17:59:07.841Z,2.77
2023-04-27T18:01:34.817Z,2.60
2023-04-27T18:04:04.280Z,2.40
2023-04-27T18:06:32.156Z,2.40
2023-04-27T18:08:58.986Z,2.80
2023-04-27T18:11:25.693Z,2.83
2023-04-27T18:13:53.537Z,2.37
2023-04-27T18:16:20.244Z,2.90
2023-04-27T18:18:47.250Z,2.90
2023-04-27T18:21:13.899Z,2.47
2023-04-27T18:23:41.386Z,2.60
2023-04-27T18:26:10.943Z,3.20
2023-04-27T18:28:40.206Z,2.50
2023-04-27T18:31:17.082Z,3.30
2023-04-27T18:33:45.014Z,3.13
2023-04-27T18:36:11.976Z,3.40
2023-04-27T18:38:38.858Z,3.13
2023-04-27T18:41:05.637Z,3.20
2023-04-27T18:43:36.718Z,3.67
2023-04-27T18:46:04.129Z,3.13
2023-04-27T18:48:30.853Z,2.87
2023-04-27T18:50:57.591Z,3.80
2023-04-27T18:53:24.316Z,2.80
2023-04-27T18:55:51.069Z,2.97
2023-04-27T18:58:17.818Z,3.23
2023-04-27T19:00:44.506Z,2.83
2023-04-27T19:03:11.482Z,2.90
2023-04-27T19:05:45.151Z,3.10
2023-04-27T19:08:11.984Z,2.80
2023-04-27T19:10:41.489Z,2.70
2023-04-27T19:13:08.268Z,3.07
2023-04-27T19:15:35.524Z,2.90
2023-04-27T19:18:09.988Z,3.10
2023-04-27T19:20:38.625Z,2.70
2023-04-27T19:23:05.525Z,2.67
2023-04-27T19:25:32.340Z,3.20
2023-04-27T19:27:59.093Z,3.60
2023-04-27T19:30:25.978Z,2.67
2023-04-27T19:32:52.721Z,3.07
2023-04-27T19:35:20.350Z,2.90
2023-04-27T19:37:47.292Z,2.67
2023-04-27T19:40:14.998Z,3.67
2023-04-27T19:42:41.670Z,3.20
2023-04-27T19:45:08.560Z,3.20
2023-04-27T19:47:35.800Z,3.30
2023-04-27T19:50:03.056Z,3.30
2023-04-27T19:52:30.171Z,3.10
2023-04-27T19:54:57.727Z,3.50
2023-04-27T19:57:24.395Z,3.47
2023-04-27T19:59:51.490Z,2.77
2023-04-27T20:02:18.387Z,2.80
2023-04-27T20:04:45.410Z,3.20
2023-04-27T20:07:12.298Z,3.83
2023-04-27T20:09:39.054Z,3.30
2023-04-27T20:12:05.865Z,2.87
2023-04-27T20:14:37.719Z,3.47
2023-04-27T20:17:05.423Z,3.50
2023-04-27T20:19:32.286Z,3.00
2023-04-27T20:22:00.907Z,3.57
2023-04-27T20:24:29.106Z,3.93
2023-04-27T20:26:55.827Z,3.43
2023-04-27T20:29:22.559Z,3.80
2023-04-27T20:31:51.679Z,3.47
2023-04-27T20:34:18.444Z,3.33
2023-04-27T20:36:45.143Z,3.50
2023-04-27T20:39:12.098Z,3.20
2023-04-27T20:41:41.880Z,3.17
2023-04-27T20:44:09.454Z,3.50
2023-04-27T20:46:36.789Z,3.70
2023-04-27T20:49:06.004Z,3.60
2023-04-27T20:51:35.905Z,3.43
2023-04-27T20:54:02.691Z,4.13
2023-04-27T20:56:33.022Z,3.70
2023-04-27T20:59:00.069Z,3.60
2023-04-27T21:01:27.187Z,3.90
2023-04-27T21:03:54.537Z,3.33
2023-04-27T21:06:21.484Z,4.20
2023-04-27T21:08:48.929Z,3.80
2023-04-27T21:11:17.903Z,3.80
2023-04-27T21:13:44.864Z,3.53
2023-04-27T21:16:11.733Z,3.50
2023-04-27T21:18:38.455Z,3.30
2023-04-27T21:21:05.467Z,3.90
2023-04-27T21:23:35.454Z,3.73
2023-04-27T21:26:02.162Z,3.63
2023-04-27T21:28:28.832Z,3.47
2023-04-27T21:30:55.544Z,3.53
2023-04-27T21:33:22.495Z,3.30
2023-04-27T21:35:49.155Z,3.30
2023-04-27T21:38:15.823Z,3.67
2023-04-27T21:40:42.627Z,3.30
2023-04-27T21:43:09.511Z,3.73
2023-04-27T21:45:37.893Z,3.60
2023-04-27T21:48:04.850Z,3.50
2023-04-27T21:50:31.776Z,3.83
2023-04-27T21:52:58.562Z,3.50
2023-04-27T21:55:25.168Z,3.73
2023-04-27T21:57:52.013Z,3.50
2023-04-27T22:00:19.048Z,3.20
2023-04-27T22:02:46.143Z,3.50
2023-04-27T22:05:12.899Z,3.27
2023-04-27T22:07:39.809Z,3.33
2023-04-27T22:10:07.597Z,3.30
2023-04-27T22:12:34.634Z,3.47
2023-04-27T22:15:01.439Z,3.00
2023-04-27T22:17:28.302Z,3.50
2023-04-27T22:19:55.099Z,3.13
2023-04-27T22:22:21.797Z,3.53
2023-04-27T22:24:48.690Z,3.27
2023-04-27T22:27:15.385Z,3.97
2023-04-27T22:29:42.056Z,3.57
2023-04-27T22:32:08.948Z,3.70
2023-04-27T22:34:37.303Z,3.53
2023-04-27T22:37:04.132Z,3.50
2023-04-27T22:39:31.734Z,3.67
2023-04-27T22:41:58.455Z,3.10
2023-04-27T22:44:25.954Z,3.23
2023-04-27T22:46:52.802Z,3.67
2023-04-27T22:49:19.645Z,3.80
2023-04-27T22:51:47.314Z,3.43
2023-04-27T22:54:14.658Z,3.90
2023-04-27T22:56:41.782Z,3.90
2023-04-27T22:59:08.593Z,5.07
2023-04-27T23:01:35.307Z,4.00
2023-04-27T23:04:02.318Z,4.60
2023-04-27T23:06:30.447Z,4.27
2023-04-27T23:08:57.309Z,4.33
2023-04-27T23:11:24.006Z,4.40
2023-04-27T23:13:50.777Z,4.43
2023-04-27T23:16:17.632Z,4.60
2023-04-27T23:18:44.439Z,4.77
2023-04-27T23:21:11.700Z,4.37
2023-04-27T23:23:38.419Z,4.83
2023-04-27T23:26:13.091Z,3.93
2023-04-27T23:28:40.951Z,4.73
2023-04-27T23:31:07.776Z,4.17
2023-04-27T23:33:34.437Z,4.03
2023-04-27T23:36:01.934Z,4.90
2023-04-27T23:38:28.752Z,4.60
2023-04-27T23:40:55.471Z,4.40
2023-04-27T23:43:22.530Z,4.70
2023-04-27T23:45:50.946Z,4.20
2023-04-27T23:48:17.959Z,4.10
2023-04-27T23:50:44.721Z,4.50
2023-04-27T23:53:11.835Z,4.60
2023-04-27T23:55:38.572Z,4.00
2023-04-27T23:58:05.640Z,4.40
